Kingston Norman Rogers Airport
CYGK : now visible

Airfield :











YOU CAN JOIN US ON...

 
LOGIN :

Register | Disclaimer

   EN    FR    IT 

 









Legend :    VFR   Marginal VFR   IFR   Intensive IFR   Very Intensive IFR
Visi :
Ceiling :
>= 8 km
>= 3000ft
5 to 8 km
1000 to 3000 ft
1500m to 5 km
500 to 1000 ft
800 to 1500m
200 to 500 ft
< 800m
< 200 ft
Symbols :   Thunderstorms  Fog  Heavy snow  Heavy precipitations  Wind > 20 kt






- Airport Elevation : 305 ft
- IATA code : YGK


CYGK - Kingston Norman Rogers

CURRENT METAR :
  • 142010Z 01008KT 3SM -RA BR FEW005 BKN015 OVC023 03/02 A2919 RMK SF2SC5SC1 SLP890

EXPIRED METARs :
  • 142000Z 01010KT 3SM RA BR FEW005 BKN015 OVC022 03/02 A2920 RMK SF2SC4SC2 SLP891
  • 141953Z 36010G15KT 2 1/2SM RA BR SCT005 OVC015 03/02 A2920 RMK SF4SC4 SLP892
  • 141931Z 36011KT 2 1/2SM RA BR BKN004 OVC013 03/02 A2920 RMK SF5SC3 SLP893
  • 141900Z 36011G17KT 1 1/2SM -RA BR BKN004 OVC012 03/03 A2921 RMK SF7SC1 SLP896
  • 141827Z 01011KT 1 1/2SM -RA BR OVC005 03/03 A2925 RMK SF8 CIG RAG PRESFR SLP908
  • 141800Z 02010G16KT 1 1/2SM -DZ BR OVC005 03/03 A2928 RMK SF8 CIG RAG PRESFR SLP920

TAF AMD TAF CYGK
Valid from the 14 at 20:00 until the 15 at 04:00 UTC


142006Z 1420/1504 36010G20KT 1SM -RA BR BKN004 OVC008
TEMPO 1420/1502 4SM -RA BR SCT004 OVC015
FM150200 31010G20KT 1SM -RASN OVC003
TEMPO 1502/1504 3SM -SN BR OVC008 RMK NXT FCST BY 150200Z



MET'MAP, your aeronautical weather chart ! - Copyright ORBIFLY December 2007 - Disclaimer

ORBIFLY MET'MAP TEAM :

Programming & Development : Alexandra Zaïnal
Concept & original design : Baudouin d'Aumeries
Assistance for programming : Marc-Olivier Méhu
Technical & hardware support : Manuel Goepfert

Contact : metmap@orbifly.com




SOURCES & CREDITS :

   NOAA       Earth
Advisory